Time;durP1;ratioP1;P1;durP2;ratioP2;P2;SDS_P1;SDS_P2;PMS_P1;PMS_P2;Temp;Humidity;BMP_temperature;BMP_pressure;BME280_temperature;BME280_humidity;BME280_pressure;Samples;Min_cycle;Max_cycle;Signal;HPM_P1;HPM_P2
2022/12/10 00:00:33;;;;;;;66.10;32.85;;;-0.10;99.90;;;-144.05;76.06;125687.94;5036760;28;20030;-82
2022/12/10 00:02:59;;;;;;;61.95;30.65;;;-0.10;99.90;;;-144.05;76.01;125687.94;5037538;28;20032;-84
2022/12/10 00:05:25;;;;;;;67.00;30.58;;;0.00;99.90;;;-144.05;76.29;125687.94;5036228;28;20033;-83
2022/12/10 00:07:51;;;;;;;66.43;30.75;;;0.00;99.90;;;-144.05;76.40;125687.94;5037910;28;20031;-83
2022/12/10 00:10:17;;;;;;;66.25;31.77;;;0.00;99.90;;;-144.05;75.83;125687.94;5046295;28;20025;-81
2022/12/10 00:12:43;;;;;;;61.25;28.75;;;0.00;99.90;;;-144.05;75.63;125687.94;5037985;28;20044;-83
2022/12/10 00:15:09;;;;;;;65.07;31.20;;;0.00;99.90;;;-144.05;75.80;125687.94;5039277;28;20535;-83
2022/12/10 00:17:35;;;;;;;60.42;28.05;;;0.10;99.90;;;-144.05;75.66;125687.94;5040090;28;20022;-79
2022/12/10 00:20:01;;;;;;;63.35;31.33;;;0.10;99.90;;;-144.05;75.59;125687.94;5044845;28;20029;-81
2022/12/10 00:22:27;;;;;;;65.60;30.02;;;0.10;99.90;;;-144.05;75.48;125687.94;5039315;28;20026;-81
2022/12/10 00:24:53;;;;;;;63.38;32.30;;;0.10;99.90;;;-144.05;75.65;125687.94;5035522;28;20068;-79
2022/12/10 00:27:19;;;;;;;61.38;29.40;;;0.10;99.90;;;-144.05;75.63;125687.94;5034666;28;20040;-82
2022/12/10 00:29:45;;;;;;;57.72;28.30;;;0.20;99.90;;;-144.05;75.54;125687.94;5033256;28;20034;-81
2022/12/10 00:32:11;;;;;;;60.30;28.60;;;0.20;99.90;;;-144.05;75.50;125687.94;5033127;28;20461;-82
2022/12/10 00:34:36;;;;;;;58.13;28.67;;;0.20;99.90;;;-144.05;75.63;125687.94;5034093;28;20484;-82
2022/12/10 00:37:02;;;;;;;63.75;29.40;;;0.20;99.90;;;-144.05;75.55;125687.94;5032283;28;20021;-81
2022/12/10 00:39:28;;;;;;;66.50;30.77;;;0.20;99.90;;;-144.05;75.62;125687.94;5033487;28;20033;-80
2022/12/10 00:41:54;;;;;;;62.05;28.92;;;0.20;99.90;;;-144.05;75.58;125687.94;5034093;28;20547;-82
2022/12/10 00:44:21;;;;;;;56.75;28.85;;;0.20;99.90;;;-144.05;75.23;125687.94;5032516;28;20123;-81
2022/12/10 00:46:46;;;;;;;60.80;29.35;;;0.20;99.90;;;-144.05;75.52;125687.94;5032401;28;20176;-84
2022/12/10 00:49:13;;;;;;;60.38;29.67;;;0.20;99.90;;;-144.05;75.58;125687.94;5034267;28;20037;-83
2022/12/10 00:51:39;;;;;;;62.53;29.42;;;0.20;99.90;;;-144.05;75.10;125687.94;5035664;28;20029;-82
2022/12/10 00:54:07;;;;;;;63.13;30.98;;;0.30;99.90;;;-144.05;75.23;125687.94;5034231;28;20040;-84
2022/12/10 00:56:33;;;;;;;63.35;29.60;;;0.30;99.90;;;-144.05;75.03;125687.94;5034713;28;20025;-83
2022/12/10 00:59:01;;;;;;;59.90;31.02;;;0.30;99.90;;;-144.05;75.31;125687.94;5036078;28;20066;-83
2022/12/10 01:01:40;;;;;;;65.75;31.83;;;0.30;99.90;;;-144.05;74.98;125687.94;5035391;28;20129;-84
2022/12/10 01:04:17;;;;;;;57.20;27.15;;;0.30;99.90;;;-144.05;75.00;125687.94;5036910;28;20526;-84
2022/12/10 01:06:54;;;;;;;67.55;30.17;;;0.30;99.90;;;-144.05;74.89;125687.94;5036039;28;20125;-82
2022/12/10 01:09:27;;;;;;;68.35;29.48;;;0.30;99.90;;;-144.05;74.86;125687.94;5033510;28;20030;-83
2022/12/10 01:11:56;;;;;;;58.72;28.95;;;0.30;99.90;;;-144.05;74.84;125687.94;5034845;28;20030;-83
2022/12/10 01:14:29;;;;;;;63.40;30.40;;;0.30;99.90;;;-144.05;75.06;125687.94;5034077;28;20075;-83
2022/12/10 01:17:02;;;;;;;60.80;30.73;;;0.30;99.90;;;-144.05;74.67;125687.94;5033799;28;20026;-83
2022/12/10 01:19:31;;;;;;;62.42;30.33;;;0.30;99.90;;;-144.05;75.05;125687.94;5033070;28;20401;-84
2022/12/10 01:21:57;;;;;;;60.40;29.35;;;0.30;99.90;;;-144.05;75.02;125687.94;5032905;28;20506;-84
2022/12/10 01:24:27;;;;;;;58.58;29.27;;;0.30;99.90;;;-144.05;75.13;125687.94;5032542;28;20496;-84
2022/12/10 01:26:54;;;;;;;63.03;30.60;;;0.30;99.90;;;-144.05;75.35;125687.94;5035143;28;20044;-84
2022/12/10 01:29:21;;;;;;;60.20;29.30;;;0.40;99.90;;;-144.05;75.33;125687.94;5033494;28;20029;-83
2022/12/10 01:31:53;;;;;;;62.67;30.75;;;0.40;99.90;;;-144.05;75.36;125687.94;5033439;28;20033;-83
2022/12/10 01:34:19;;;;;;;57.80;28.40;;;0.40;99.90;;;-144.05;75.35;125687.94;5033326;28;20030;-82
2022/12/10 01:36:51;;;;;;;60.17;29.17;;;0.40;99.90;;;-144.05;75.51;125687.94;5034285;28;20018;-84
2022/12/10 01:39:20;;;;;;;61.42;30.15;;;0.40;99.90;;;-144.05;75.52;125687.94;5033465;28;20167;-84
2022/12/10 01:41:59;;;;;;;64.05;30.80;;;0.40;99.90;;;-144.05;75.21;125687.94;5032472;28;20036;-82
2022/12/10 01:44:25;;;;;;;58.30;29.33;;;0.30;99.90;;;-144.05;75.18;125687.94;5034254;28;20112;-80
2022/12/10 01:47:00;;;;;;;60.83;29.75;;;0.30;99.90;;;-144.05;74.82;125687.94;5034475;28;20061;-84
2022/12/10 01:49:40;;;;;;;59.60;30.10;;;0.30;99.90;;;-144.05;74.96;125687.94;5032788;28;20033;-82
2022/12/10 01:52:12;;;;;;;56.65;28.38;;;0.40;99.90;;;-144.05;74.74;125687.94;5033839;28;20037;-80
2022/12/10 01:54:45;;;;;;;61.28;28.63;;;0.40;99.90;;;-144.05;74.59;125687.94;5032418;28;20025;-81
2022/12/10 01:57:20;;;;;;;55.97;28.98;;;0.40;99.90;;;-144.05;74.67;125687.94;5032034;28;20026;-83
2022/12/10 01:59:53;;;;;;;62.55;28.92;;;0.40;99.90;;;-144.05;74.54;125687.94;5033012;28;20520;-83
2022/12/10 02:02:44;;;;;;;58.92;27.88;;;0.40;99.90;;;-144.05;74.78;125687.94;5033359;28;20040;-81
2022/12/10 02:06:01;;;;;;;58.00;27.98;;;0.40;99.90;;;-144.05;74.81;125687.94;5033114;28;20048;-81
2022/12/10 02:09:06;;;;;;;61.78;30.08;;;0.40;99.90;;;-144.05;75.04;125687.94;5034920;28;20030;-83
2022/12/10 02:12:21;;;;;;;56.35;26.80;;;0.50;99.90;;;-144.05;74.98;125687.94;5033820;28;20497;-81
2022/12/10 02:14:58;;;;;;;62.30;29.35;;;0.50;99.90;;;-144.05;74.59;125687.94;5034630;28;20025;-82
2022/12/10 02:17:41;;;;;;;57.33;28.58;;;0.40;99.90;;;-144.05;74.99;125687.94;5034188;28;20060;-81
2022/12/10 02:20:32;;;;;;;58.65;29.50;;;0.40;99.90;;;-144.05;74.86;125687.94;5033121;28;20083;-83
2022/12/10 02:23:13;;;;;;;61.63;29.48;;;0.50;99.90;;;-144.05;75.05;125687.94;5031426;28;20025;-81
2022/12/10 02:26:15;;;;;;;60.15;30.20;;;0.40;99.90;;;-144.05;74.82;125687.94;5032606;28;20029;-81
2022/12/10 02:29:24;;;;;;;59.95;29.20;;;0.40;99.90;;;-144.05;74.81;125687.94;5031293;28;20490;-81
2022/12/10 02:32:06;;;;;;;60.47;27.38;;;0.40;99.90;;;-144.05;74.88;125687.94;5031507;28;20029;-83
2022/12/10 02:34:42;;;;;;;59.97;29.23;;;0.40;99.90;;;-144.05;74.68;125687.94;5032318;28;20056;-82
2022/12/10 02:37:29;;;;;;;63.92;29.05;;;0.40;99.90;;;-144.05;74.59;125687.94;5036847;28;20073;-81
2022/12/10 02:40:04;;;;;;;68.65;31.92;;;0.40;99.90;;;-144.05;74.78;125687.94;5036670;28;20038;-81
2022/12/10 02:42:38;;;;;;;67.22;30.40;;;0.40;99.90;;;-144.05;74.79;125687.94;5036885;28;20447;-82
2022/12/10 02:45:07;;;;;;;69.03;31.55;;;0.40;99.90;;;-144.05;74.59;125687.94;5038170;28;20085;-80
2022/12/10 02:47:38;;;;;;;61.00;28.67;;;0.40;99.90;;;-144.05;74.76;125687.94;5041953;28;20030;-83
2022/12/10 02:50:09;;;;;;;70.95;32.10;;;0.40;99.90;;;-144.05;74.70;125687.94;5046181;28;20051;-81
2022/12/10 02:52:35;;;;;;;70.32;31.88;;;0.40;99.90;;;-144.05;74.56;125687.94;5048183;28;20347;-83
2022/12/10 02:55:01;;;;;;;74.35;32.67;;;0.40;99.90;;;-144.05;74.94;125687.94;5034036;28;20033;-80
2022/12/10 02:57:50;;;;;;;64.93;31.60;;;0.40;99.90;;;-144.05;75.01;125687.94;5033594;28;20029;-81
2022/12/10 03:00:22;;;;;;;65.35;29.35;;;0.40;99.90;;;-144.05;74.92;125687.94;5034481;28;20025;-82
2022/12/10 03:03:20;;;;;;;62.03;28.70;;;0.50;99.90;;;-144.05;74.70;125687.94;5035571;28;20033;-81
2022/12/10 03:06:14;;;;;;;64.93;30.00;;;0.40;99.90;;;-144.05;74.60;125687.94;5035304;28;20029;-80
2022/12/10 03:08:56;;;;;;;69.63;31.50;;;0.40;99.90;;;-144.05;74.75;125687.94;5034073;28;20108;-81
2022/12/10 03:11:24;;;;;;;66.93;31.60;;;0.40;99.90;;;-144.05;74.75;125687.94;5035081;28;20428;-81
2022/12/10 03:14:16;;;;;;;74.63;32.75;;;0.50;99.90;;;-144.05;75.05;125687.94;5035048;28;20423;-81
2022/12/10 03:16:55;;;;;;;70.18;33.13;;;0.50;99.90;;;-144.05;74.34;125687.94;5035054;28;20056;-80
2022/12/10 03:19:35;;;;;;;74.30;37.67;;;0.50;99.90;;;-144.05;74.57;125687.94;5033940;28;20103;-80
2022/12/10 03:22:06;;;;;;;69.72;31.70;;;0.50;99.90;;;-144.05;74.58;125687.94;5036022;28;20040;-81
2022/12/10 03:24:35;;;;;;;70.97;32.72;;;0.50;99.90;;;-144.05;74.50;125687.94;5037630;28;20064;-82
2022/12/10 03:27:06;;;;;;;70.53;31.85;;;0.50;99.90;;;-144.05;74.56;125687.94;5037150;28;20055;-82
2022/12/10 03:29:50;;;;;;;66.85;32.58;;;0.50;99.90;;;-144.05;74.33;125687.94;5036584;28;20075;-84
2022/12/10 03:32:22;;;;;;;71.47;33.33;;;0.50;99.90;;;-144.05;74.07;125687.94;5035891;28;20040;-83
2022/12/10 03:34:53;;;;;;;63.35;31.63;;;0.50;99.90;;;-144.05;73.47;125687.94;5034794;28;20322;-83
2022/12/10 03:37:22;;;;;;;72.38;33.95;;;0.50;99.90;;;-144.05;73.28;125687.94;5034888;28;20036;-84
2022/12/10 03:39:49;;;;;;;67.95;31.70;;;0.50;99.90;;;-144.05;73.42;125687.94;5034737;28;20029;-83
2022/12/10 03:42:15;;;;;;;64.60;31.50;;;0.50;99.90;;;-144.05;73.84;125687.94;5036119;28;20033;-81
2022/12/10 03:44:41;;;;;;;60.00;28.63;;;0.50;99.90;;;-144.05;74.00;125687.94;5035222;28;20033;-82
2022/12/10 03:47:14;;;;;;;72.63;33.50;;;0.50;99.90;;;-144.05;73.97;125687.94;5034121;28;20029;-82
2022/12/10 03:49:42;;;;;;;75.50;33.72;;;0.50;99.90;;;-144.05;74.08;125687.94;5035171;28;20460;-82
2022/12/10 03:52:09;;;;;;;68.38;33.17;;;0.60;99.90;;;-144.05;73.93;125687.94;5035114;28;20140;-81
2022/12/10 03:54:35;;;;;;;66.25;32.65;;;0.50;99.90;;;-144.05;73.37;125687.94;5034812;28;20037;-80
2022/12/10 03:57:01;;;;;;;66.65;32.78;;;0.50;99.90;;;-144.05;72.85;125687.94;5033272;28;20175;-82
2022/12/10 03:59:27;;;;;;;63.67;31.10;;;0.50;99.90;;;-144.05;72.70;125687.94;5035284;28;20083;-82
2022/12/10 04:01:53;;;;;;;64.68;31.90;;;0.50;99.90;;;-144.05;72.74;125687.94;5034727;28;20025;-80
2022/12/10 04:04:18;;;;;;;61.97;29.58;;;0.50;99.90;;;-144.05;72.76;125687.94;5033139;28;20056;-81
2022/12/10 04:06:44;;;;;;;61.65;30.88;;;0.50;99.90;;;-144.05;72.86;125687.94;5033299;28;20031;-80
2022/12/10 04:09:14;;;;;;;62.30;31.02;;;0.50;99.90;;;-144.05;72.81;125687.94;5032875;28;20029;-82
2022/12/10 04:11:40;;;;;;;64.18;30.80;;;0.50;99.90;;;-144.05;72.64;125687.94;5034515;28;20061;-82
2022/12/10 04:16:51;;;;;;;;;;;0.50;99.90;;;-144.05;72.27;125687.94;5034543;28;20148;-81
2022/12/10 04:19:18;;;;;;;57.08;28.88;;;0.50;99.90;;;-144.05;71.66;125687.94;5032950;28;20369;-83
2022/12/10 04:27:31;;;;;;;53.95;27.98;;;0.50;99.90;;;-144.05;71.26;125687.94;5034358;28;19915;-79
2022/12/10 04:29:59;;;;;;;62.38;29.92;;;0.50;99.90;;;-144.05;71.00;125687.94;5033922;28;20059;-81
2022/12/10 04:32:29;;;;;;;64.32;30.85;;;0.50;99.90;;;-144.05;71.01;125687.94;5034409;28;20037;-82
2022/12/10 04:34:55;;;;;;;57.25;29.60;;;0.50;99.90;;;-144.05;71.13;125687.94;5033631;28;20029;-81
2022/12/10 04:37:23;;;;;;;56.45;28.95;;;0.50;99.90;;;-144.05;71.05;125687.94;5035383;28;20025;-82
2022/12/10 04:39:51;;;;;;;53.78;27.02;;;0.40;99.90;;;-144.05;70.92;125687.94;5034108;28;20396;-82
2022/12/10 04:42:18;;;;;;;52.85;26.90;;;0.50;99.90;;;-144.05;70.81;125687.94;5036398;28;20472;-82
2022/12/10 04:44:45;;;;;;;52.17;27.17;;;0.40;99.90;;;-144.05;70.39;125687.94;5039522;28;20025;-83
2022/12/10 04:47:12;;;;;;;48.15;25.33;;;0.50;99.90;;;-144.05;70.09;125687.94;5035283;28;20037;-79
2022/12/10 04:49:39;;;;;;;52.22;24.95;;;0.50;99.90;;;-144.05;69.90;125687.94;5036249;28;20087;-81
2022/12/10 04:52:13;;;;;;;48.67;26.20;;;0.50;99.90;;;-144.05;69.84;125687.94;5038112;28;20029;-81
2022/12/10 04:54:42;;;;;;;48.00;23.95;;;0.50;99.90;;;-144.05;69.75;125687.94;5037305;28;20196;-81
2022/12/10 04:57:09;;;;;;;41.25;22.15;;;0.50;99.90;;;-144.05;69.46;125687.94;5035964;28;20517;-82
2022/12/10 04:59:36;;;;;;;41.05;22.02;;;0.50;99.90;;;-144.05;69.04;125687.94;5035340;28;20025;-82
2022/12/10 05:02:03;;;;;;;39.53;21.88;;;0.50;99.90;;;-144.05;69.03;125687.94;5034458;28;20054;-81
2022/12/10 05:04:29;;;;;;;45.30;23.27;;;0.50;99.90;;;-144.05;69.11;125687.94;5034639;28;20408;-82
2022/12/10 05:06:55;;;;;;;44.55;22.77;;;0.50;99.90;;;-144.05;68.85;125687.94;5035675;28;20041;-80
2022/12/10 05:09:22;;;;;;;40.72;22.70;;;0.50;99.90;;;-144.05;69.13;125687.94;5033606;28;20082;-82
2022/12/10 05:11:48;;;;;;;44.72;22.88;;;0.50;99.90;;;-144.05;69.18;125687.94;5033277;28;20314;-83
2022/12/10 05:14:15;;;;;;;44.17;22.98;;;0.50;99.90;;;-144.05;68.75;125687.94;5033426;28;20109;-83
2022/12/10 05:16:42;;;;;;;44.80;23.25;;;0.50;99.90;;;-144.05;68.94;125687.94;5032986;28;20025;-83
2022/12/10 05:19:10;;;;;;;50.08;25.50;;;0.50;99.90;;;-144.05;68.89;125687.94;5033020;28;20075;-83
2022/12/10 05:24:21;;;;;;;43.47;22.90;;;0.50;99.90;;;-144.05;69.24;125687.94;5034611;28;20032;-80
2022/12/10 05:26:50;;;;;;;37.88;20.92;;;0.50;99.90;;;-144.05;68.68;125687.94;5032711;28;20029;-81
2022/12/10 05:29:17;;;;;;;37.35;20.85;;;0.50;99.90;;;-144.05;68.64;125687.94;5034091;28;20026;-81
2022/12/10 05:31:43;;;;;;;38.10;21.70;;;0.50;99.90;;;-144.05;68.36;125687.94;5032980;28;20029;-81
2022/12/10 05:34:11;;;;;;;43.25;23.88;;;0.50;99.90;;;-144.05;68.56;125687.94;5034009;28;20032;-82
2022/12/10 05:36:37;;;;;;;42.22;21.60;;;0.50;99.90;;;-144.05;68.53;125687.94;5032719;28;20092;-83
2022/12/10 05:39:04;;;;;;;40.92;21.25;;;0.50;99.90;;;-144.05;68.62;125687.94;5033130;28;20063;-80
2022/12/10 05:41:37;;;;;;;39.78;22.02;;;0.50;99.90;;;-144.05;68.42;125687.94;5034695;28;20048;-80
2022/12/10 05:44:04;;;;;;;38.38;21.02;;;0.50;99.90;;;-144.05;68.54;125687.94;5033965;28;20022;-82
2022/12/10 05:46:35;;;;;;;43.47;22.10;;;0.50;99.90;;;-144.05;68.90;125687.94;5044848;28;20260;-79
2022/12/10 05:49:05;;;;;;;43.17;22.50;;;0.50;99.90;;;-144.05;69.25;125687.94;5033746;28;20069;-79
2022/12/10 05:51:35;;;;;;;36.08;19.52;;;0.40;99.90;;;-144.05;68.87;125687.94;5035554;28;20025;-81
2022/12/10 05:54:04;;;;;;;41.33;20.83;;;0.40;99.90;;;-144.05;68.76;125687.94;5036727;28;20052;-81
2022/12/10 05:56:31;;;;;;;35.95;19.25;;;0.40;99.90;;;-144.05;68.50;125687.94;5034028;28;20032;-82
2022/12/10 05:59:03;;;;;;;38.10;20.52;;;0.40;99.90;;;-144.05;68.44;125687.94;5037030;28;20036;-82
2022/12/10 06:01:35;;;;;;;44.50;20.92;;;0.50;99.90;;;-144.05;68.39;125687.94;5035095;28;20033;-82
2022/12/10 06:04:04;;;;;;;38.22;19.70;;;0.40;99.90;;;-144.05;68.66;125687.94;5026067;23;20042;-87
2022/12/10 06:06:36;;;;;;;39.13;19.65;;;0.40;99.90;;;-144.05;68.19;125687.94;5015445;28;20080;-88
2022/12/10 06:09:04;;;;;;;34.17;18.60;;;0.40;99.90;;;-144.05;68.49;125687.94;5017582;28;20054;-89
2022/12/10 06:11:30;;;;;;;36.85;19.33;;;0.40;99.90;;;-144.05;68.62;125687.94;5021660;28;20227;-87
2022/12/10 06:13:58;;;;;;;36.58;19.52;;;0.40;99.90;;;-144.05;68.35;125687.94;5022114;28;20041;-87
2022/12/10 06:16:27;;;;;;;41.97;21.13;;;0.40;99.90;;;-144.05;68.23;125687.94;5018487;28;20116;-88
2022/12/10 06:18:54;;;;;;;37.45;19.75;;;0.40;99.90;;;-144.05;67.92;125687.94;5018282;28;20088;-85
2022/12/10 06:21:22;;;;;;;44.63;21.15;;;0.40;99.90;;;-144.05;68.00;125687.94;5018185;28;20026;-86
2022/12/10 06:23:51;;;;;;;44.60;21.80;;;0.40;99.90;;;-144.05;67.94;125687.94;5019835;28;20032;-86
2022/12/10 06:26:26;;;;;;;45.05;21.30;;;0.40;99.90;;;-144.05;68.37;125687.94;5034781;28;20053;-84
2022/12/10 06:28:54;;;;;;;42.00;20.25;;;0.40;99.90;;;-144.05;68.40;125687.94;5017701;28;20034;-85
2022/12/10 06:31:20;;;;;;;38.03;19.95;;;0.40;99.90;;;-144.05;68.03;125687.94;5019426;28;20037;-85
2022/12/10 06:33:47;;;;;;;39.50;19.25;;;0.40;99.90;;;-144.05;67.82;125687.94;5018282;28;20164;-86
2022/12/10 06:36:17;;;;;;;37.10;19.48;;;0.30;99.90;;;-144.05;67.64;125687.94;5021228;28;20026;-88
2022/12/10 06:38:44;;;;;;;37.75;18.20;;;0.30;99.90;;;-144.05;67.87;125687.94;5017891;28;20117;-87
2022/12/10 06:41:15;;;;;;;38.33;18.88;;;0.30;99.90;;;-144.05;67.93;125687.94;5017552;28;20026;-88
2022/12/10 06:43:42;;;;;;;39.95;19.52;;;0.30;99.90;;;-144.05;67.99;125687.94;5019162;28;20038;-87
2022/12/10 06:46:15;;;;;;;37.50;18.88;;;0.20;99.90;;;-144.05;67.80;125687.94;5017360;28;20030;-87
2022/12/10 06:48:42;;;;;;;39.70;19.88;;;0.20;99.90;;;-144.05;68.05;125687.94;5022967;28;20034;-88
2022/12/10 06:51:11;;;;;;;38.92;20.70;;;0.10;99.90;;;-144.05;68.49;125687.94;5027810;28;20037;-86
2022/12/10 06:53:39;;;;;;;40.33;21.50;;;0.10;99.90;;;-144.05;68.15;125687.94;5023108;28;20091;-85
2022/12/10 06:56:10;;;;;;;38.30;19.42;;;0.00;99.90;;;-144.05;68.60;125687.94;5016998;28;20033;-86
2022/12/10 06:58:37;;;;;;;40.10;19.88;;;-0.10;99.90;;;-144.05;68.30;125687.94;5018068;28;20058;-85
2022/12/10 07:01:11;;;;;;;37.55;19.27;;;-0.10;99.90;;;-144.05;68.38;125687.94;5016955;28;20061;-87
2022/12/10 07:03:38;;;;;;;39.28;19.92;;;-0.20;99.90;;;-144.05;68.37;125687.94;5016811;28;20033;-86
2022/12/10 07:06:08;;;;;;;38.85;18.80;;;-0.20;99.90;;;-144.05;68.69;125687.94;5016701;28;20022;-87
2022/12/10 07:08:36;;;;;;;39.35;19.48;;;-0.20;99.90;;;-144.05;68.35;125687.94;5016616;28;20053;-88
2022/12/10 07:11:09;;;;;;;35.88;18.48;;;-0.20;99.90;;;-144.05;68.62;125687.94;5016773;28;20030;-87
2022/12/10 07:13:37;;;;;;;39.92;19.35;;;-0.20;99.90;;;-144.05;68.74;125687.94;5017022;28;20056;-86
2022/12/10 07:16:12;;;;;;;42.75;18.20;;;-0.20;99.90;;;-144.05;68.88;125687.94;5016088;28;20033;-88
2022/12/10 07:18:38;;;;;;;42.00;21.65;;;-0.30;99.90;;;-144.05;69.09;125687.94;5016727;28;20041;-86
2022/12/10 07:21:29;;;;;;;38.85;19.73;;;-0.30;99.90;;;-144.05;69.11;125687.94;5016430;28;20034;-88
2022/12/10 07:24:00;;;;;;;40.50;20.30;;;-0.30;99.90;;;-144.05;68.79;125687.94;5016411;28;20038;-87
2022/12/10 07:26:30;;;;;;;34.28;17.95;;;-0.40;99.90;;;-144.05;69.08;125687.94;5016380;28;20401;-89
2022/12/10 07:28:57;;;;;;;39.38;20.40;;;-0.40;99.90;;;-144.05;69.38;125687.94;5016356;28;20030;-88
2022/12/10 07:31:23;;;;;;;38.47;19.98;;;-0.50;99.90;;;-144.05;69.56;125687.94;5018130;28;20088;-87
2022/12/10 07:33:52;;;;;;;43.60;21.08;;;-0.50;99.90;;;-144.05;69.13;125687.94;5016746;28;20068;-87
2022/12/10 07:36:22;;;;;;;41.15;19.67;;;-0.50;99.90;;;-144.05;69.69;125687.94;5016154;28;20025;-86
2022/12/10 07:38:49;;;;;;;41.83;19.92;;;-0.50;99.90;;;-144.05;70.08;125687.94;5019353;28;20152;-87
2022/12/10 07:41:15;;;;;;;39.35;18.90;;;-0.60;99.90;;;-144.05;69.79;125687.94;5020214;28;20040;-89
2022/12/10 07:43:44;;;;;;;39.58;19.63;;;-0.60;99.90;;;-144.05;69.95;125687.94;5021606;28;20025;-87
2022/12/10 07:46:17;;;;;;;36.85;18.38;;;-0.60;99.90;;;-144.05;69.62;125687.94;5022338;28;20089;-88
2022/12/10 07:48:46;;;;;;;38.13;17.83;;;-0.60;99.90;;;-144.05;69.13;125687.94;5025576;28;20044;-86
2022/12/10 07:51:13;;;;;;;36.33;18.98;;;-0.80;99.90;;;-144.05;69.03;125687.94;5035907;28;20030;-85
2022/12/10 07:53:39;;;;;;;39.05;19.27;;;-0.70;99.90;;;-144.05;69.25;125687.94;5022046;28;20045;-88
2022/12/10 07:56:06;;;;;;;36.15;18.35;;;-0.70;99.90;;;-144.05;69.31;125687.94;5019394;28;20038;-87
2022/12/10 07:58:32;;;;;;;35.75;18.77;;;-0.80;99.90;;;-144.05;69.62;125687.94;5019199;28;20065;-87
2022/12/10 08:00:58;;;;;;;39.08;18.40;;;-0.80;99.90;;;-144.05;69.34;125687.94;5019828;28;20120;-86
2022/12/10 08:03:24;;;;;;;38.03;20.13;;;-0.70;99.90;;;-144.05;69.95;125687.94;5020739;28;20097;-89
2022/12/10 08:06:14;;;;;;;39.83;19.50;;;-0.60;99.90;;;-144.05;69.76;125687.94;5019497;28;20136;-85
2022/12/10 08:08:43;;;;;;;34.30;18.25;;;-0.50;99.90;;;-144.05;69.38;125687.94;5018857;28;20030;-87
2022/12/10 08:11:10;;;;;;;38.08;17.35;;;-0.40;99.90;;;-144.05;68.67;125687.94;5020580;28;20156;-87
2022/12/10 08:13:36;;;;;;;33.28;17.95;;;-0.40;99.90;;;-144.05;68.46;125687.94;5020096;28;20064;-85
2022/12/10 08:16:19;;;;;;;32.53;17.80;;;-0.30;99.90;;;-144.05;68.58;125687.94;5018072;28;20030;-87
2022/12/10 08:18:46;;;;;;;38.63;19.50;;;-0.20;99.90;;;-144.05;68.32;125687.94;5016899;28;20033;-88
2022/12/10 08:21:21;;;;;;;36.05;17.92;;;-0.10;99.90;;;-144.05;68.24;125687.94;5017918;28;20087;-86
2022/12/10 08:23:48;;;;;;;33.30;17.90;;;-0.10;99.90;;;-144.05;67.79;125687.94;5019228;28;20029;-86
2022/12/10 08:26:24;;;;;;;36.83;18.25;;;-0.10;99.90;;;-144.05;68.15;125687.94;5018917;28;20034;-88
2022/12/10 08:28:51;;;;;;;31.42;16.67;;;0.00;99.90;;;-144.05;67.82;125687.94;5019035;28;20040;-85
2022/12/10 08:31:21;;;;;;;34.58;16.77;;;0.00;99.90;;;-144.05;67.86;125687.94;5016917;28;20084;-88
2022/12/10 08:33:48;;;;;;;32.42;16.92;;;0.10;99.90;;;-144.05;66.93;125687.94;5016071;28;20124;-87
2022/12/10 08:36:20;;;;;;;34.22;17.17;;;0.10;99.90;;;-144.05;67.02;125687.94;5017275;28;20029;-87
2022/12/10 08:38:46;;;;;;;36.47;18.38;;;0.20;99.90;;;-144.05;66.47;125687.94;5019372;28;20034;-85
2022/12/10 08:41:21;;;;;;;33.85;15.13;;;0.20;99.90;;;-144.05;65.93;125687.94;5017317;28;20098;-86
2022/12/10 08:43:48;;;;;;;29.55;16.35;;;0.30;99.90;;;-144.05;65.73;125687.94;5017463;28;20120;-85
2022/12/10 08:46:15;;;;;;;33.67;17.42;;;0.40;99.90;;;-144.05;65.90;125687.94;5018403;28;20030;-88
2022/12/10 08:48:42;;;;;;;30.17;16.42;;;0.50;99.90;;;-144.05;64.98;125687.94;5016027;28;20034;-87
2022/12/10 08:51:14;;;;;;;31.45;14.90;;;0.60;99.90;;;-144.05;64.46;125687.94;5016646;28;20343;-87
2022/12/10 08:53:40;;;;;;;29.58;15.50;;;0.70;99.90;;;-144.05;64.00;125687.94;5016887;28;20026;-87
2022/12/10 08:56:06;;;;;;;27.85;14.88;;;0.70;99.90;;;-144.05;64.31;125687.94;5016354;28;20471;-86
2022/12/10 08:58:32;;;;;;;26.52;14.63;;;0.60;99.90;;;-144.05;64.46;125687.94;5015807;28;20034;-86
2022/12/10 09:00:58;;;;;;;29.92;16.23;;;0.50;99.90;;;-144.05;64.52;125687.94;5016008;28;20032;-85
2022/12/10 09:03:25;;;;;;;33.25;15.25;;;0.40;99.90;;;-144.05;64.77;125687.94;5018186;28;20033;-85
2022/12/10 09:05:51;;;;;;;31.92;16.08;;;0.40;99.90;;;-144.05;64.50;125687.94;5017306;28;20106;-87
2022/12/10 09:08:17;;;;;;;28.35;16.25;;;0.30;99.90;;;-144.05;65.34;125687.94;5017604;28;20033;-87
2022/12/10 09:10:42;;;;;;;29.33;14.95;;;0.30;99.90;;;-144.05;65.15;125687.94;5017697;28;20085;-86
2022/12/10 09:13:09;;;;;;;30.40;15.80;;;0.30;99.90;;;-144.05;65.67;125687.94;5017043;28;20030;-88
2022/12/10 09:15:35;;;;;;;28.52;15.27;;;0.30;99.90;;;-144.05;65.20;125687.94;5017813;28;20092;-86
2022/12/10 09:18:01;;;;;;;27.45;15.05;;;0.30;99.90;;;-144.05;65.11;125687.94;5017999;28;20045;-86
2022/12/10 09:20:27;;;;;;;28.17;14.65;;;0.40;99.90;;;-144.05;64.86;125687.94;5017042;28;20030;-88
2022/12/10 09:22:53;;;;;;;27.77;15.73;;;0.40;99.90;;;-144.05;64.79;125687.94;5016692;28;20509;-85
2022/12/10 09:25:21;;;;;;;31.23;15.70;;;0.50;99.90;;;-144.05;64.43;125687.94;5017735;28;20022;-85
2022/12/10 09:27:47;;;;;;;31.40;15.63;;;0.50;99.90;;;-144.05;64.58;125687.94;5016675;28;20398;-87
2022/12/10 09:30:14;;;;;;;23.40;12.93;;;0.40;99.90;;;-144.05;64.08;125687.94;5016839;28;20041;-86
2022/12/10 09:32:41;;;;;;;28.38;14.93;;;0.40;99.90;;;-144.05;63.98;125687.94;5016331;28;20029;-86
2022/12/10 09:35:07;;;;;;;27.35;14.32;;;0.50;99.90;;;-144.05;64.29;125687.94;5015449;28;20449;-85
2022/12/10 09:37:33;;;;;;;28.02;15.30;;;0.50;99.90;;;-144.05;64.16;125687.94;5015211;28;20156;-88
2022/12/10 09:39:59;;;;;;;27.77;14.80;;;0.60;99.90;;;-144.05;63.62;125687.94;5015324;28;20065;-87
2022/12/10 09:43:00;;;;;;;28.42;14.70;;;0.50;99.90;;;-144.05;63.90;125687.94;5015556;28;20032;-86
2022/12/10 09:45:56;;;;;;;26.55;14.88;;;0.40;99.90;;;-144.05;63.60;125687.94;5017092;28;20121;-88
2022/12/10 09:48:43;;;;;;;21.02;10.77;;;0.50;99.90;;;-144.05;64.01;125687.94;5017593;28;20113;-86
2022/12/10 09:51:31;;;;;;;32.00;16.33;;;0.50;99.90;;;-144.05;64.09;125687.94;5017909;28;20052;-87
2022/12/10 09:54:00;;;;;;;28.65;15.95;;;0.50;99.90;;;-144.05;64.55;125687.94;5032069;28;20053;-87
2022/12/10 09:56:39;;;;;;;32.45;16.92;;;0.50;99.90;;;-144.05;64.46;125687.94;5021376;28;20108;-84
2022/12/10 09:59:34;;;;;;;32.28;15.05;;;0.60;99.90;;;-144.05;64.11;125687.94;5017673;28;20057;-89
2022/12/10 10:02:28;;;;;;;28.48;15.75;;;0.60;99.90;;;-144.05;64.05;125687.94;5016434;28;20036;-88
2022/12/10 10:05:25;;;;;;;28.48;15.65;;;0.70;99.90;;;-144.05;63.80;125687.94;5015061;28;20038;-84
2022/12/10 10:08:01;;;;;;;33.10;16.67;;;0.70;99.90;;;-144.05;64.24;125687.94;5014564;28;20114;-86
2022/12/10 10:10:35;;;;;;;32.95;15.70;;;0.80;99.90;;;-144.05;63.64;125687.94;5013992;28;20121;-86
2022/12/10 10:13:39;;;;;;;31.00;17.13;;;0.80;99.90;;;-144.05;63.35;125687.94;5012405;28;20155;-84
2022/12/10 10:16:52;;;;;;;33.40;16.98;;;0.80;99.90;;;-144.05;63.96;125687.94;5012728;28;20092;-84
2022/12/10 10:19:38;;;;;;;43.95;21.33;;;0.80;99.90;;;-144.05;64.09;125687.94;5028148;28;20234;-87
2022/12/10 10:22:48;;;;;;;42.38;21.15;;;0.90;99.90;;;-144.05;64.68;125687.94;4991733;28;20585;-87